Etihad Airways Virtual Airport Information Service

Paris Charles de Gaulle Airport

ICAO: LFPG Country: France
Latitude: 49.0125 Longitude: 2.55575
Latest Arrival : ETD37 (2) (OMAA-LFPG) Latest Departure : ETD38 (2) (LFPG-OMAA)


WX CaptureLIVE
Data provided by noaa.gov | Recorded at 23:10:59

METAR : LFPG 192230Z 11006KT CAVOK 21/17 Q1013 NOSIG

TAF : LFPG 191700Z 1918/2024 09010KT 9999 FEW060TCU TX28/2015Z TN18/2006Z PROB40 TEMPO 1918/1920 VRB20G30KT 2500 TSRA BKN050CB BECMG 1921/1923 CAVOK


Runway Data for LFPG
Data provided by openaviationdata.com

Runway ID Mag Var Hdg Length Elevation Surface ILS Freq ILS Id ILS Slope

Paris Charles de Gaulle Airport, France
Use only for reference purposes